Time;durP1;ratioP1;P1;durP2;ratioP2;P2;SDS_P1;SDS_P2;PMS_P1;PMS_P2;Temp;Humidity;BMP_temperature;BMP_pressure;BME280_temperature;BME280_humidity;BME280_pressure;Samples;Min_cycle;Max_cycle;Signal;HPM_P1;HPM_P2
2022/11/20 00:02:07;;;;;;;24.92;12.27;;;-0.80;79.60;;;;;;9176545;19;20046;-65
2022/11/20 00:05:11;;;;;;;22.50;11.25;;;-0.80;79.70;;;;;;9178069;19;20002;-61
2022/11/20 00:08:15;;;;;;;24.40;11.50;;;-0.80;79.60;;;;;;9176566;19;20499;-64
2022/11/20 00:11:20;;;;;;;24.42;11.00;;;-0.80;79.70;;;;;;9180257;19;20010;-62
2022/11/20 00:14:24;;;;;;;21.35;11.45;;;-0.90;79.70;;;;;;9179450;19;20052;-64
2022/11/20 00:17:30;;;;;;;21.70;12.27;;;-0.90;79.60;;;;;;9175703;19;20014;-62
2022/11/20 00:20:33;;;;;;;21.38;11.15;;;-0.90;79.60;;;;;;9178078;19;20127;-62
2022/11/20 00:23:37;;;;;;;21.75;10.73;;;-0.90;79.70;;;;;;9179750;19;20022;-63
2022/11/20 00:26:41;;;;;;;24.80;10.93;;;-0.90;79.70;;;;;;9177156;19;20011;-63
2022/11/20 00:29:45;;;;;;;18.50;10.52;;;-0.90;79.70;;;;;;9178501;19;20018;-62
2022/11/20 00:32:50;;;;;;;26.60;10.98;;;-1.00;79.70;;;;;;9178957;19;20010;-61
2022/11/20 00:35:54;;;;;;;24.30;11.43;;;-1.00;79.70;;;;;;9178779;19;20362;-64
2022/11/20 00:38:59;;;;;;;21.42;10.45;;;-1.00;79.70;;;;;;9177963;19;20018;-62
2022/11/20 00:42:03;;;;;;;23.65;11.75;;;-1.00;79.70;;;;;;9178616;19;20097;-65
2022/11/20 00:45:08;;;;;;;31.52;12.35;;;-1.10;79.60;;;;;;9178019;19;20019;-63
2022/11/20 00:48:13;;;;;;;25.70;11.68;;;-1.10;79.70;;;;;;9176106;19;20014;-62
2022/11/20 00:51:19;;;;;;;21.20;10.20;;;-1.10;79.70;;;;;;9177982;19;20046;-61
2022/11/20 00:54:23;;;;;;;24.50;11.82;;;-1.10;79.70;;;;;;9172285;19;20354;-62
2022/11/20 00:57:26;;;;;;;24.10;11.38;;;-1.10;79.80;;;;;;9178110;19;20070;-61
2022/11/20 01:00:30;;;;;;;23.33;11.02;;;-1.10;79.80;;;;;;9177842;19;20468;-63
2022/11/20 01:03:37;;;;;;;20.33;10.57;;;-1.20;79.70;;;;;;9177844;19;20026;-63
2022/11/20 01:06:41;;;;;;;21.58;11.90;;;-1.20;79.70;;;;;;9174292;19;20014;-63
2022/11/20 01:09:45;;;;;;;23.55;10.75;;;-1.20;79.70;;;;;;9178304;19;20701;-63
2022/11/20 01:13:36;;;;;;;22.27;10.68;;;-1.20;79.80;;;;;;9177993;19;20027;-63
2022/11/20 01:16:14;;;;;;;22.58;11.05;;;-1.20;79.80;;;;;;9176868;19;20010;-62
2022/11/20 01:19:22;;;;;;;20.08;11.00;;;-1.30;79.70;;;;;;9177529;19;20014;-61
2022/11/20 01:22:27;;;;;;;21.10;10.30;;;-1.30;79.70;;;;;;9177233;19;20029;-62
2022/11/20 01:25:31;;;;;;;23.48;12.32;;;-1.20;79.80;;;;;;9177478;19;20042;-63
2022/11/20 01:28:35;;;;;;;22.60;11.57;;;-1.30;79.80;;;;;;9173837;19;20026;-61
2022/11/20 01:31:39;;;;;;;25.90;11.95;;;-1.30;79.80;;;;;;9177197;19;20018;-62
2022/11/20 01:34:45;;;;;;;22.52;10.95;;;-1.30;79.80;;;;;;9177407;19;20025;-63
2022/11/20 01:37:48;;;;;;;22.27;11.70;;;-1.30;79.80;;;;;;9175152;19;20042;-64
2022/11/20 01:41:01;;;;;;;23.55;11.85;;;-1.30;79.80;;;;;;9177268;19;20046;-61
2022/11/20 01:44:04;;;;;;;25.17;12.17;;;-1.40;79.80;;;;;;9175973;19;20366;-65
2022/11/20 01:47:09;;;;;;;20.85;8.73;;;-1.40;79.80;;;;;;9175110;19;20025;-64
2022/11/20 01:50:20;;;;;;;33.25;12.98;;;-1.40;79.80;;;;;;9176486;19;20022;-62
2022/11/20 01:53:30;;;;;;;25.02;12.52;;;-1.40;79.80;;;;;;9170162;19;20023;-62
2022/11/20 01:56:38;;;;;;;25.88;12.55;;;-1.40;79.90;;;;;;9176107;19;20021;-62
2022/11/20 01:59:46;;;;;;;24.85;11.73;;;-1.40;79.80;;;;;;9175490;19;20015;-63
2022/11/20 02:02:58;;;;;;;25.27;11.77;;;-1.40;79.90;;;;;;9172541;19;20011;-63
2022/11/20 02:06:11;;;;;;;25.85;12.27;;;-1.50;79.80;;;;;;9174379;19;20684;-61
2022/11/20 02:09:16;;;;;;;28.83;12.20;;;-1.50;79.90;;;;;;9172007;19;20030;-62
2022/11/20 02:15:37;;;;;;;23.75;11.43;;;-1.50;79.90;;;;;;9174272;19;20026;-64
2022/11/20 02:18:41;;;;;;;20.20;10.57;;;-1.50;79.90;;;;;;9175824;19;20023;-63
2022/11/20 02:21:56;;;;;;;20.05;11.68;;;-1.50;79.90;;;;;;9174491;19;20482;-64
2022/11/20 02:25:04;;;;;;;31.10;12.57;;;-1.50;79.90;;;;;;9174785;19;20047;-63
2022/11/20 02:28:08;;;;;;;31.27;14.27;;;-1.50;80.00;;;;;;9170744;19;20014;-65
2022/11/20 02:31:11;;;;;;;30.70;13.63;;;-1.50;79.90;;;;;;9174178;19;20093;-63
2022/11/20 02:34:15;;;;;;;32.03;13.40;;;-1.50;79.90;;;;;;9173989;19;20014;-63
2022/11/20 02:37:19;;;;;;;;;;;-1.50;80.00;;;;;;9174203;19;20054;-63
2022/11/20 02:40:25;;;;;;;;;;;-1.50;80.00;;;;;;9174850;19;20273;-62
2022/11/20 02:43:48;;;;;;;29.05;11.80;;;-1.50;79.90;;;;;;9180586;19;19919;-62
2022/11/20 02:46:52;;;;;;;25.23;12.10;;;-1.60;79.80;;;;;;9182918;19;20018;-63
2022/11/20 02:49:56;;;;;;;25.02;10.48;;;-1.60;79.80;;;;;;9183132;19;20030;-63
2022/11/20 02:53:00;;;;;;;31.17;13.10;;;-1.60;79.90;;;;;;9177896;19;20018;-61
2022/11/20 02:56:06;;;;;;;40.85;15.27;;;-1.60;79.90;;;;;;9176611;19;20018;-63
2022/11/20 02:59:10;;;;;;;58.67;20.70;;;-1.60;80.50;;;;;;9179471;19;20022;-63
2022/11/20 03:02:14;;;;;;;45.15;15.63;;;-1.70;79.90;;;;;;9181181;19;20042;-63
2022/11/20 03:05:18;;;;;;;33.13;13.23;;;-1.70;79.90;;;;;;9181301;19;20102;-64
2022/11/20 03:08:21;;;;;;;26.85;12.07;;;-1.70;79.90;;;;;;9179816;19;20027;-63
2022/11/20 03:11:27;;;;;;;28.17;12.40;;;-1.70;79.90;;;;;;9180962;19;20030;-61
2022/11/20 03:14:31;;;;;;;29.83;13.27;;;-1.70;79.90;;;;;;9180899;19;20014;-62
2022/11/20 03:17:34;;;;;;;29.88;12.80;;;-1.70;80.00;;;;;;9181188;19;20404;-62
2022/11/20 03:20:38;;;;;;;30.17;13.70;;;-1.70;80.00;;;;;;9179513;19;20025;-63
2022/11/20 03:23:42;;;;;;;29.60;12.73;;;-1.70;80.00;;;;;;9181387;19;20019;-62
2022/11/20 03:26:48;;;;;;;29.17;13.48;;;-1.80;80.00;;;;;;9180368;19;20025;-61
2022/11/20 03:29:51;;;;;;;29.50;11.98;;;-1.80;80.00;;;;;;9180686;19;20015;-65
2022/11/20 03:32:55;;;;;;;;;;;-1.80;80.00;;;;;;9182118;19;20018;-64
2022/11/20 03:36:03;;;;;;;27.15;13.07;;;-1.80;80.00;;;;;;9178853;19;19958;-65
2022/11/20 03:39:07;;;;;;;29.20;13.00;;;-1.80;79.90;;;;;;9180660;19;20019;-63
2022/11/20 03:45:29;;;;;;;26.35;12.55;;;-1.80;80.00;;;;;;9180727;19;20813;-64
2022/11/20 03:48:33;;;;;;;28.55;13.25;;;-1.80;80.10;;;;;;9178311;19;20018;-63
2022/11/20 03:51:38;;;;;;;25.70;12.85;;;-1.90;80.00;;;;;;9179818;19;20015;-61
2022/11/20 03:54:41;;;;;;;24.35;12.02;;;-1.90;80.00;;;;;;9171748;19;20044;-64
2022/11/20 03:57:47;;;;;;;29.95;12.85;;;-1.90;80.00;;;;;;9178404;19;20051;-62
2022/11/20 04:00:51;;;;;;;25.00;13.02;;;-1.90;80.00;;;;;;9176276;19;20014;-61
2022/11/20 04:03:56;;;;;;;27.80;11.68;;;-1.90;80.00;;;;;;9180209;19;20011;-63
2022/11/20 04:07:00;;;;;;;29.15;11.77;;;-1.90;80.00;;;;;;9178440;19;20014;-61
2022/11/20 04:10:05;;;;;;;29.48;12.63;;;-2.00;79.90;;;;;;9177546;19;20142;-63
2022/11/20 04:13:10;;;;;;;26.73;11.73;;;-1.90;80.10;;;;;;9179541;19;20018;-63
2022/11/20 04:16:14;;;;;;;23.40;11.32;;;-2.00;80.00;;;;;;9179231;19;20067;-63
2022/11/20 04:19:18;;;;;;;26.25;11.48;;;-1.90;80.10;;;;;;9178235;19;20035;-64
2022/11/20 04:22:22;;;;;;;25.23;11.30;;;-2.00;80.00;;;;;;9177836;19;20014;-64
2022/11/20 04:25:26;;;;;;;23.85;11.20;;;-2.00;80.00;;;;;;9179204;19;20015;-63
2022/11/20 04:28:32;;;;;;;23.95;11.40;;;-2.00;80.00;;;;;;9176688;19;20011;-62
2022/11/20 04:31:36;;;;;;;23.80;11.80;;;-2.00;80.00;;;;;;9179074;19;20027;-61
2022/11/20 04:34:40;;;;;;;24.88;11.27;;;-2.00;80.00;;;;;;9178727;19;20025;-62
2022/11/20 04:37:44;;;;;;;22.15;10.88;;;-2.10;79.90;;;;;;9179131;19;20478;-61
2022/11/20 04:40:47;;;;;;;24.58;10.68;;;-2.00;80.00;;;;;;9177540;19;20074;-64
2022/11/20 04:43:59;;;;;;;19.85;10.45;;;-2.00;80.00;;;;;;9178753;19;20010;-64
2022/11/20 04:47:02;;;;;;;22.33;10.20;;;-2.00;80.00;;;;;;9178447;19;20044;-63
2022/11/20 04:50:07;;;;;;;21.73;10.65;;;-2.10;80.00;;;;;;9177363;19;20329;-65
2022/11/20 04:53:11;;;;;;;23.63;11.57;;;-2.10;80.00;;;;;;9174424;19;20023;-63
2022/11/20 04:56:15;;;;;;;22.40;11.43;;;-2.10;80.00;;;;;;9177972;19;20092;-61
2022/11/20 04:59:21;;;;;;;26.23;11.10;;;-2.10;80.00;;;;;;9178580;19;20019;-61
2022/11/20 05:02:25;;;;;;;23.15;11.05;;;-2.10;80.00;;;;;;9177827;19;20015;-64
2022/11/20 05:05:29;;;;;;;21.17;10.48;;;-2.10;80.00;;;;;;9176766;19;22374;-62
2022/11/20 05:08:33;;;;;;;21.00;10.07;;;-2.20;80.00;;;;;;9176269;19;20476;-62
2022/11/20 05:11:37;;;;;;;21.35;10.32;;;-2.20;80.00;;;;;;9178064;19;20393;-62
2022/11/20 05:14:43;;;;;;;24.15;11.80;;;-2.20;80.00;;;;;;9177227;19;20085;-63
2022/11/20 05:17:49;;;;;;;24.92;10.70;;;-2.20;80.00;;;;;;9177519;19;20049;-62
2022/11/20 05:20:57;;;;;;;23.23;10.82;;;-2.20;80.00;;;;;;9177568;19;20638;-62
2022/11/20 05:24:01;;;;;;;21.75;11.10;;;-2.20;80.00;;;;;;9177554;19;20352;-62
2022/11/20 05:27:05;;;;;;;20.60;11.05;;;-2.20;80.10;;;;;;9176247;19;20014;-62
2022/11/20 05:30:12;;;;;;;18.38;10.13;;;-2.20;80.10;;;;;;9177149;19;20956;-64
2022/11/20 05:33:17;;;;;;;21.65;10.55;;;-2.30;80.00;;;;;;9176503;19;20018;-63
2022/11/20 05:36:21;;;;;;;23.10;11.52;;;-2.30;80.00;;;;;;9176511;19;20020;-63
2022/11/20 05:39:24;;;;;;;19.13;10.15;;;-2.30;80.10;;;;;;9175883;19;20025;-64
2022/11/20 05:42:35;;;;;;;20.50;10.07;;;-2.30;80.10;;;;;;9175875;19;20018;-63
2022/11/20 05:45:41;;;;;;;22.92;10.98;;;-2.30;80.00;;;;;;9176278;19;20014;-63
2022/11/20 05:48:45;;;;;;;23.92;10.88;;;-2.30;80.10;;;;;;9174000;19;20035;-61
2022/11/20 05:51:49;;;;;;;20.75;10.15;;;-2.30;80.10;;;;;;9176048;19;20356;-62
2022/11/20 05:54:53;;;;;;;22.67;10.90;;;-2.30;80.20;;;;;;9170890;19;20003;-64
2022/11/20 05:57:57;;;;;;;21.52;11.10;;;-2.30;80.10;;;;;;9174291;19;20011;-63
2022/11/20 06:01:08;;;;;;;20.38;10.30;;;-2.30;80.10;;;;;;9173950;19;20551;-64
2022/11/20 06:04:12;;;;;;;23.15;10.85;;;-2.30;80.10;;;;;;9175782;19;20046;-62
2022/11/20 06:07:16;;;;;;;23.92;10.73;;;-2.30;80.10;;;;;;9173107;19;20014;-62
2022/11/20 06:10:19;;;;;;;24.40;12.18;;;-2.30;80.10;;;;;;9175763;19;20348;-62
2022/11/20 06:13:23;;;;;;;22.45;10.93;;;-2.40;80.10;;;;;;9176162;19;20014;-63
2022/11/20 06:16:29;;;;;;;22.25;10.30;;;-2.40;80.00;;;;;;9176801;19;20025;-63
2022/11/20 06:19:32;;;;;;;19.63;9.80;;;-2.40;80.00;;;;;;9184936;19;20104;-63
2022/11/20 06:22:36;;;;;;;;;;;-2.40;80.00;;;;;;9185938;19;20497;-62
2022/11/20 06:25:40;;;;;;;22.23;10.60;;;-2.40;80.00;;;;;;9183607;19;19922;-61
2022/11/20 06:28:44;;;;;;;25.35;10.73;;;-2.40;80.00;;;;;;9181295;19;20601;-62
2022/11/20 06:31:50;;;;;;;21.63;11.05;;;-2.40;80.00;;;;;;9183903;19;20021;-63
2022/11/20 06:34:53;;;;;;;23.00;11.02;;;-2.40;80.10;;;;;;9183322;19;20015;-62
2022/11/20 06:37:58;;;;;;;21.80;10.95;;;-2.40;80.10;;;;;;9181369;19;20522;-63
2022/11/20 06:41:02;;;;;;;21.88;10.77;;;-2.50;80.00;;;;;;9182130;19;20044;-65
2022/11/20 06:44:06;;;;;;;21.15;10.52;;;-2.40;80.10;;;;;;9181141;19;20018;-62
2022/11/20 06:47:12;;;;;;;24.90;11.15;;;-2.50;80.10;;;;;;9180119;19;20645;-63
2022/11/20 06:50:16;;;;;;;23.17;11.25;;;-2.50;80.10;;;;;;9182697;19;20699;-65
2022/11/20 06:53:20;;;;;;;21.52;11.13;;;-2.50;80.10;;;;;;9176162;19;20011;-62
2022/11/20 06:56:24;;;;;;;26.52;12.65;;;-2.50;80.10;;;;;;9182652;19;20540;-64
2022/11/20 06:59:27;;;;;;;28.50;11.82;;;-2.50;80.20;;;;;;9180673;19;20490;-63
2022/11/20 07:02:33;;;;;;;27.40;13.40;;;-2.50;80.20;;;;;;9181910;19;20026;-62
2022/11/20 07:05:38;;;;;;;26.48;12.20;;;-2.50;80.20;;;;;;9180196;19;20066;-63
2022/11/20 07:08:41;;;;;;;31.08;13.93;;;-2.50;80.20;;;;;;9178648;19;20014;-62
2022/11/20 07:11:45;;;;;;;27.30;12.70;;;-2.50;80.10;;;;;;9182148;19;20022;-63
2022/11/20 07:14:49;;;;;;;;;;;-2.50;80.10;;;;;;9182802;19;20475;-64
2022/11/20 07:17:54;;;;;;;25.77;11.73;;;-2.50;80.10;;;;;;9181703;19;19934;-64
2022/11/20 07:21:01;;;;;;;26.65;11.73;;;-2.50;80.10;;;;;;9181591;19;20046;-62
2022/11/20 07:24:05;;;;;;;24.30;11.77;;;-2.50;80.10;;;;;;9181229;19;20014;-61
2022/11/20 07:27:09;;;;;;;22.48;11.45;;;-2.50;80.10;;;;;;9180371;19;20022;-62
2022/11/20 07:30:15;;;;;;;21.92;11.20;;;-2.50;80.10;;;;;;9180682;19;20014;-61
2022/11/20 07:33:21;;;;;;;23.40;10.45;;;-2.50;80.20;;;;;;9178179;19;20042;-61
2022/11/20 07:36:24;;;;;;;27.60;12.77;;;-2.50;80.20;;;;;;9181039;19;20449;-65
2022/11/20 07:39:28;;;;;;;23.83;10.65;;;-2.50;80.20;;;;;;9178370;19;20031;-63
2022/11/20 07:42:32;;;;;;;24.63;12.20;;;-2.50;80.20;;;;;;9180563;19;20014;-63
2022/11/20 07:45:36;;;;;;;26.15;11.90;;;-2.50;80.20;;;;;;9179766;19;20388;-66
2022/11/20 07:48:41;;;;;;;23.60;11.55;;;-2.50;80.20;;;;;;9179151;19;20034;-61
2022/11/20 07:51:45;;;;;;;28.00;12.52;;;-2.50;80.20;;;;;;9180713;19;20116;-61
2022/11/20 07:54:54;;;;;;;23.55;11.75;;;-2.50;80.20;;;;;;9175431;19;20042;-62
2022/11/20 07:57:59;;;;;;;25.92;11.80;;;-2.50;80.20;;;;;;9180033;19;20014;-62
2022/11/20 08:01:05;;;;;;;31.73;12.45;;;-2.50;80.20;;;;;;9179427;19;20022;-63
2022/11/20 08:04:11;;;;;;;47.83;17.65;;;-2.40;80.90;;;;;;9179438;19;20075;-64
2022/11/20 08:07:15;;;;;;;32.65;12.75;;;-2.40;80.30;;;;;;9179361;19;20011;-61
2022/11/20 08:10:19;;;;;;;24.35;11.73;;;-2.40;80.30;;;;;;9179420;19;20022;-62
2022/11/20 08:16:40;;;;;;;25.95;13.18;;;-2.40;80.30;;;;;;9180716;19;20018;-62
2022/11/20 08:19:45;;;;;;;29.95;13.32;;;-2.30;81.00;;;;;;9179913;19;20019;-63
2022/11/20 08:22:49;;;;;;;26.40;12.10;;;-2.30;80.40;;;;;;9179723;19;20018;-64
2022/11/20 08:25:53;;;;;;;31.98;12.82;;;-2.30;80.40;;;;;;9179005;19;20006;-62
2022/11/20 08:28:57;;;;;;;28.92;13.93;;;-2.30;80.40;;;;;;9177286;19;20044;-64
2022/11/20 08:32:01;;;;;;;30.60;13.35;;;-2.20;80.50;;;;;;9178688;19;20023;-61
2022/11/20 08:35:07;;;;;;;27.13;13.60;;;-2.20;80.50;;;;;;9178187;19;20039;-62
2022/11/20 08:38:11;;;;;;;34.33;15.73;;;-2.10;80.50;;;;;;9178304;19;20011;-64
2022/11/20 08:41:27;;;;;;;33.15;15.75;;;-2.10;80.50;;;;;;9176608;19;20692;-63
2022/11/20 08:44:31;;;;;;;31.52;14.40;;;-2.10;80.50;;;;;;9178827;19;20010;-62
2022/11/20 08:47:35;;;;;;;32.92;14.95;;;-2.00;80.50;;;;;;9177287;19;20329;-62
2022/11/20 08:50:40;;;;;;;24.30;12.75;;;-2.00;80.50;;;;;;9179066;19;20039;-63
2022/11/20 08:53:44;;;;;;;28.52;13.10;;;-1.90;80.60;;;;;;9173423;19;20032;-62
2022/11/20 08:56:48;;;;;;;28.20;13.00;;;-1.90;80.60;;;;;;9178741;19;20038;-63
2022/11/20 08:59:51;;;;;;;;;;;-1.90;80.60;;;;;;9177820;19;20011;-62
2022/11/20 09:03:09;;;;;;;27.08;12.82;;;-1.80;80.60;;;;;;9173009;19;20483;-63
2022/11/20 09:06:15;;;;;;;26.05;13.98;;;-1.80;80.60;;;;;;9171076;19;20026;-63
2022/11/20 09:09:19;;;;;;;24.05;12.85;;;-1.70;80.60;;;;;;9168390;19;20010;-65
2022/11/20 09:12:24;;;;;;;28.80;13.13;;;-1.70;80.60;;;;;;9171320;19;20034;-64
2022/11/20 09:15:28;;;;;;;26.58;13.90;;;-1.70;80.70;;;;;;9170694;19;20021;-64
2022/11/20 09:18:32;;;;;;;30.77;13.80;;;-1.60;80.70;;;;;;9170327;19;20014;-63
2022/11/20 09:21:38;;;;;;;31.95;14.45;;;-1.60;80.70;;;;;;9171377;19;20039;-62
2022/11/20 09:24:42;;;;;;;30.25;14.80;;;-1.50;80.80;;;;;;9169718;19;20086;-65
2022/11/20 09:27:46;;;;;;;26.90;13.30;;;-1.50;80.80;;;;;;9169053;19;20022;-62
2022/11/20 09:30:50;;;;;;;30.90;14.45;;;-1.40;80.90;;;;;;9170736;19;20021;-63
2022/11/20 09:33:54;;;;;;;30.42;14.77;;;-1.40;80.90;;;;;;9171789;19;20011;-61
2022/11/20 09:37:00;;;;;;;34.45;16.45;;;-1.30;80.90;;;;;;9168673;19;20022;-64
2022/11/20 09:40:21;;;;;;;30.80;15.68;;;-1.20;81.00;;;;;;9168659;19;20034;-65
2022/11/20 09:43:35;;;;;;;34.17;17.77;;;-1.10;81.20;;;;;;9168860;19;20360;-64
2022/11/20 09:46:49;;;;;;;37.05;17.10;;;-1.00;81.20;;;;;;9170998;19;20474;-66
2022/11/20 09:50:06;;;;;;;35.38;17.88;;;-0.90;81.30;;;;;;9169432;19;20026;-63
2022/11/20 09:53:25;;;;;;;39.03;17.77;;;-0.70;81.50;;;;;;9172348;19;20023;-64
2022/11/20 09:56:31;;;;;;;37.00;18.65;;;-0.50;81.60;;;;;;9177898;19;20019;-65
2022/11/20 09:59:39;;;;;;;37.50;17.30;;;-0.30;81.80;;;;;;9177232;19;20018;-64
2022/11/20 10:02:50;;;;;;;33.05;17.23;;;-0.10;81.70;;;;;;9176613;19;20018;-64
2022/11/20 10:05:56;;;;;;;39.60;16.73;;;0.00;81.70;;;;;;9177306;19;20439;-64
2022/11/20 10:09:22;;;;;;;34.58;17.20;;;0.20;81.80;;;;;;9175288;19;20119;-65
2022/11/20 10:12:35;;;;;;;36.15;17.15;;;0.40;81.80;;;;;;9177260;19;20011;-65
2022/11/20 10:15:49;;;;;;;31.88;16.02;;;0.70;81.80;;;;;;9176764;19;20014;-64
2022/11/20 10:19:04;;;;;;;31.92;15.80;;;0.80;81.80;;;;;;9175932;19;20014;-63
2022/11/20 10:22:16;;;;;;;32.55;14.50;;;1.00;81.70;;;;;;9176984;19;20018;-62
2022/11/20 10:25:26;;;;;;;30.15;14.95;;;1.20;81.60;;;;;;9175185;19;20035;-65
2022/11/20 10:28:50;;;;;;;30.40;13.88;;;1.30;81.50;;;;;;9172536;19;20015;-64
2022/11/20 10:32:04;;;;;;;24.08;13.00;;;1.40;81.40;;;;;;9177202;19;20419;-63
2022/11/20 10:35:20;;;;;;;26.92;14.35;;;1.50;81.40;;;;;;9174299;19;20027;-63
2022/11/20 10:38:27;;;;;;;30.58;15.02;;;1.60;81.40;;;;;;9177035;19;20583;-66
2022/11/20 10:41:42;;;;;;;27.58;14.32;;;1.60;81.20;;;;;;9176918;19;20086;-64
2022/11/20 10:45:03;;;;;;;27.02;14.25;;;1.70;81.30;;;;;;9174993;19;20026;-64
2022/11/20 10:48:16;;;;;;;27.08;13.85;;;1.70;81.30;;;;;;9175205;19;20015;-63
2022/11/20 10:51:37;;;;;;;28.38;14.30;;;1.80;81.20;;;;;;9176058;19;20015;-63
2022/11/20 10:54:49;;;;;;;24.98;13.27;;;1.90;81.30;;;;;;9169498;19;20356;-64
2022/11/20 10:58:03;;;;;;;28.98;13.77;;;1.90;81.20;;;;;;9174172;19;20027;-67
2022/11/20 11:01:15;;;;;;;23.83;12.55;;;2.00;81.20;;;;;;9172142;19;20064;-65
2022/11/20 11:04:34;;;;;;;25.13;12.57;;;2.10;81.30;;;;;;9174766;19;20407;-64
2022/11/20 11:07:40;;;;;;;22.50;12.52;;;2.10;81.20;;;;;;9175826;19;20109;-66
2022/11/20 11:10:50;;;;;;;28.38;15.27;;;2.10;81.20;;;;;;9175428;19;20014;-65
2022/11/20 11:14:07;;;;;;;27.30;13.02;;;2.20;81.30;;;;;;9172642;19;20019;-62
2022/11/20 11:17:26;;;;;;;23.63;13.27;;;2.30;81.30;;;;;;9175301;19;20034;-64
2022/11/20 11:20:31;;;;;;;22.48;11.77;;;2.40;81.20;;;;;;9173971;19;20022;-65
2022/11/20 11:23:38;;;;;;;22.17;12.23;;;2.40;81.10;;;;;;9172937;19;20019;-65
2022/11/20 11:26:52;;;;;;;23.20;11.85;;;2.40;81.10;;;;;;9174506;19;20018;-64
2022/11/20 11:30:12;;;;;;;;;;;2.50;81.10;;;;;;9173235;19;20074;-63
2022/11/20 11:33:22;;;;;;;23.65;11.70;;;2.50;81.10;;;;;;9171385;19;19930;-63
2022/11/20 11:36:26;;;;;;;21.98;12.30;;;2.60;81.00;;;;;;9174217;19;20018;-66
2022/11/20 11:39:32;;;;;;;22.98;12.00;;;2.60;81.10;;;;;;9170857;19;20433;-65
2022/11/20 11:42:35;;;;;;;23.95;12.77;;;2.60;81.00;;;;;;9172882;19;20048;-64
2022/11/20 11:45:39;;;;;;;;;;;2.70;81.00;;;;;;9175193;19;20015;-65
2022/11/20 11:48:43;;;;;;;21.43;11.83;;;2.70;81.00;;;;;;9172311;19;20225;-65
2022/11/20 11:52:05;;;;;;;28.20;11.98;;;2.70;80.90;;;;;;9173693;19;20022;-63
2022/11/20 11:55:16;;;;;;;22.88;11.55;;;2.70;80.90;;;;;;9167579;19;20014;-64
2022/11/20 11:58:35;;;;;;;23.48;12.00;;;2.80;81.00;;;;;;9173514;19;20033;-63
2022/11/20 12:01:48;;;;;;;24.13;13.95;;;2.80;81.00;;;;;;9173993;19;20054;-64
2022/11/20 12:04:56;;;;;;;;;;;2.80;80.90;;;;;;9172262;19;20069;-64
2022/11/20 12:08:07;;;;;;;25.58;12.48;;;2.90;81.10;;;;;;9173460;19;19939;-64
2022/11/20 12:11:21;;;;;;;27.02;13.40;;;2.90;81.00;;;;;;9172935;19;20486;-63
2022/11/20 12:14:34;;;;;;;26.25;13.20;;;3.00;81.10;;;;;;9170359;19;20031;-65
2022/11/20 12:17:39;;;;;;;22.80;12.18;;;3.00;81.00;;;;;;9171380;19;20019;-64
2022/11/20 12:20:50;;;;;;;23.52;12.25;;;3.00;81.00;;;;;;9170968;19;20026;-64
2022/11/20 12:24:16;;;;;;;23.63;12.30;;;3.10;81.00;;;;;;9173432;19;20085;-65
2022/11/20 12:27:43;;;;;;;25.58;12.05;;;3.10;81.00;;;;;;9172640;19;20038;-63
2022/11/20 12:31:00;;;;;;;22.85;11.88;;;3.10;81.20;;;;;;9173584;19;20018;-65
2022/11/20 12:34:16;;;;;;;24.70;11.15;;;3.20;81.10;;;;;;9174252;19;20024;-63
2022/11/20 12:37:32;;;;;;;24.52;12.27;;;3.20;81.00;;;;;;9173593;19;20010;-64
2022/11/20 12:40:45;;;;;;;22.80;11.95;;;3.30;81.10;;;;;;9170316;19;20078;-65
2022/11/20 12:47:25;;;;;;;22.35;11.95;;;3.40;81.10;;;;;;9168259;19;20044;-64
2022/11/20 12:50:42;;;;;;;23.10;11.73;;;3.40;81.10;;;;;;9163437;19;20027;-64
2022/11/20 12:54:23;;;;;;;21.95;11.13;;;3.40;81.00;;;;;;9161539;19;20022;-64
2022/11/20 12:57:34;;;;;;;24.33;11.98;;;3.50;81.10;;;;;;9166229;19;20052;-64
2022/11/20 13:00:45;;;;;;;22.50;12.07;;;3.50;81.10;;;;;;9168876;19;20015;-65
2022/11/20 13:03:56;;;;;;;18.77;10.95;;;3.50;81.00;;;;;;9171176;19;20022;-65
2022/11/20 13:07:04;;;;;;;18.88;11.35;;;3.50;81.00;;;;;;9173225;19;20022;-63
2022/11/20 13:10:20;;;;;;;17.50;10.27;;;3.60;81.10;;;;;;9168825;19;20521;-63
2022/11/20 13:13:30;;;;;;;13.20;8.63;;;3.70;81.20;;;;;;9169656;19;20042;-64
2022/11/20 13:16:40;;;;;;;15.20;8.30;;;3.70;81.20;;;;;;9167839;19;20171;-64
2022/11/20 13:19:47;;;;;;;17.67;8.75;;;3.70;81.10;;;;;;9169376;19;20883;-65
2022/11/20 13:22:56;;;;;;;16.02;8.75;;;3.80;81.20;;;;;;9170450;19;20487;-64
2022/11/20 13:26:15;;;;;;;14.95;9.13;;;3.80;81.20;;;;;;9169122;19;20046;-63
2022/11/20 13:29:20;;;;;;;16.73;9.43;;;3.90;81.80;;;;;;9169109;19;20021;-64
2022/11/20 13:32:24;;;;;;;18.85;10.73;;;3.90;81.10;;;;;;9169213;19;20022;-63
2022/11/20 13:35:29;;;;;;;;;;;3.90;81.10;;;;;;9169766;19;20385;-63
2022/11/20 13:38:46;;;;;;;19.67;9.82;;;4.00;81.10;;;;;;9165825;19;19934;-64
2022/11/20 13:54:29;;;;;;;17.13;8.57;;;4.10;81.00;;;;;;9148095;19;20014;-69
2022/11/20 13:57:53;;;;;;;16.97;8.77;;;4.10;80.90;;;;;;9166109;19;20018;-68
2022/11/20 14:01:02;;;;;;;13.63;8.43;;;4.20;80.90;;;;;;9168353;19;20019;-68
2022/11/20 14:04:10;;;;;;;14.05;9.13;;;4.20;80.90;;;;;;9168296;19;20029;-67
2022/11/20 14:07:14;;;;;;;17.77;9.07;;;4.20;81.00;;;;;;9168815;19;20021;-68
2022/11/20 14:10:24;;;;;;;16.20;9.23;;;4.20;80.90;;;;;;9165156;19;20015;-68
2022/11/20 14:13:37;;;;;;;16.10;8.68;;;4.20;80.80;;;;;;9168389;19;20041;-67
2022/11/20 14:16:42;;;;;;;21.33;9.38;;;4.20;80.80;;;;;;9166907;19;20024;-68
2022/11/20 14:19:48;;;;;;;17.17;9.40;;;4.30;80.80;;;;;;9167410;19;20030;-68
2022/11/20 14:22:53;;;;;;;16.40;8.25;;;4.20;80.80;;;;;;9166132;19;20491;-68
2022/11/20 14:25:56;;;;;;;15.25;8.60;;;4.30;80.80;;;;;;9168305;19;20379;-67
2022/11/20 14:29:02;;;;;;;16.75;8.95;;;4.30;80.70;;;;;;9163786;19;20026;-67
2022/11/20 14:32:06;;;;;;;17.30;9.77;;;4.30;80.70;;;;;;9168287;19;20463;-68
2022/11/20 14:35:18;;;;;;;17.75;8.90;;;4.30;80.70;;;;;;9167797;19;20021;-67
2022/11/20 14:38:26;;;;;;;18.42;9.30;;;4.30;80.70;;;;;;9173016;19;20050;-67
2022/11/20 14:41:32;;;;;;;17.67;8.88;;;4.30;80.60;;;;;;9175908;19;20026;-67
2022/11/20 14:44:38;;;;;;;16.85;9.15;;;4.30;80.60;;;;;;9176244;19;20094;-68
2022/11/20 14:47:43;;;;;;;18.55;10.57;;;4.30;80.70;;;;;;9175986;19;20359;-67
2022/11/20 14:50:46;;;;;;;24.30;9.55;;;4.30;80.60;;;;;;9172985;19;20369;-68
2022/11/20 14:53:50;;;;;;;21.48;10.10;;;4.30;80.60;;;;;;9170041;19;20033;-67
2022/11/20 14:56:57;;;;;;;21.67;10.52;;;4.30;80.50;;;;;;9173264;19;20122;-67
2022/11/20 15:00:21;;;;;;;17.73;10.10;;;4.30;80.60;;;;;;9175217;19;20025;-67
2022/11/20 15:03:32;;;;;;;21.10;10.02;;;4.30;80.60;;;;;;9171405;19;20026;-68
2022/11/20 15:06:36;;;;;;;23.02;10.38;;;4.30;80.50;;;;;;9174272;19;20019;-68
2022/11/20 15:09:40;;;;;;;21.35;11.23;;;4.30;80.50;;;;;;9172423;19;20633;-68
2022/11/20 15:12:48;;;;;;;;;;;4.30;80.50;;;;;;9175637;19;20491;-67
2022/11/20 15:15:56;;;;;;;23.42;10.98;;;4.30;80.50;;;;;;9174594;19;19926;-67
2022/11/20 15:19:01;;;;;;;22.75;11.38;;;4.20;80.50;;;;;;9174491;19;20029;-67
2022/11/20 15:22:15;;;;;;;23.05;11.57;;;4.20;80.50;;;;;;9174473;19;20029;-68
2022/11/20 15:25:22;;;;;;;28.77;11.73;;;4.20;80.50;;;;;;9174126;19;20030;-68
2022/11/20 15:28:32;;;;;;;26.02;11.38;;;4.20;80.50;;;;;;9173835;19;20019;-68
2022/11/20 15:31:41;;;;;;;26.25;12.77;;;4.20;80.60;;;;;;9174795;19;20014;-68
2022/11/20 15:34:44;;;;;;;33.97;15.82;;;4.20;80.60;;;;;;9171978;19;20015;-68
2022/11/20 15:37:48;;;;;;;34.05;14.15;;;4.20;80.60;;;;;;9172038;19;20019;-68
2022/11/20 15:40:52;;;;;;;32.92;13.15;;;4.20;80.60;;;;;;9173675;19;20022;-67
2022/11/20 15:43:56;;;;;;;25.48;12.57;;;4.20;80.60;;;;;;9173327;19;20023;-67
2022/11/20 15:47:01;;;;;;;;;;;4.20;80.60;;;;;;9172340;19;20043;-68
2022/11/20 15:50:11;;;;;;;27.85;12.55;;;4.20;80.60;;;;;;9172620;19;19922;-67
2022/11/20 15:53:14;;;;;;;26.38;13.05;;;4.20;80.70;;;;;;9165537;19;20030;-68
2022/11/20 15:56:18;;;;;;;;;;;4.20;80.60;;;;;;9173980;19;20026;-67
2022/11/20 15:59:22;;;;;;;29.42;13.98;;;4.10;80.60;;;;;;9169764;19;19930;-68
2022/11/20 16:02:27;;;;;;;26.15;13.45;;;4.10;80.70;;;;;;9172402;19;20026;-68
2022/11/20 16:05:31;;;;;;;26.60;13.00;;;4.10;80.70;;;;;;9171668;19;20022;-68
2022/11/20 16:08:35;;;;;;;27.90;13.98;;;4.10;80.70;;;;;;9171674;19;20022;-67
2022/11/20 16:11:39;;;;;;;27.42;13.20;;;4.10;80.70;;;;;;9171945;19;20025;-68
2022/11/20 16:18:02;;;;;;;29.83;14.80;;;4.10;80.80;;;;;;9169813;19;20534;-68
2022/11/20 16:21:06;;;;;;;32.13;14.25;;;4.10;80.80;;;;;;9171604;19;20046;-68
2022/11/20 16:24:12;;;;;;;33.20;14.88;;;4.10;80.80;;;;;;9171543;19;20070;-68
2022/11/20 16:27:16;;;;;;;33.22;14.65;;;4.10;80.70;;;;;;9172030;19;20492;-67
2022/11/20 16:30:20;;;;;;;;;;;4.10;80.80;;;;;;9171122;19;20467;-68